Time;durP1;ratioP1;P1;durP2;ratioP2;P2;SDS_P1;SDS_P2;PMS_P1;PMS_P2;Temp;Humidity;BMP_temperature;BMP_pressure;BME280_temperature;BME280_humidity;BME280_pressure;Samples;Min_cycle;Max_cycle;Signal;HPM_P1;HPM_P2
2022/02/03 00:05:57;;;;;;;5.30;3.23;;;;;;;;;;21165285;28;20109;-55
2022/02/03 00:16:29;;;;;;;5.18;2.88;;;;;;;;;;21165921;28;20415;-54
2022/02/03 00:26:32;;;;;;;5.63;3.25;;;;;;;;;;21164675;28;20055;-55
2022/02/03 00:37:03;;;;;;;7.10;2.72;;;;;;;;;;21164825;28;20048;-54
2022/02/03 00:57:34;;;;;;;5.13;3.38;;;;;;;;;;21163295;28;20502;-55
2022/02/03 01:07:38;;;;;;;6.95;4.10;;;;;;;;;;21162451;28;20069;-54
2022/02/03 01:58:44;;;;;;;5.50;2.70;;;;;;;;;;21176383;28;20059;-55
2022/02/03 02:08:52;;;;;;;6.97;3.95;;;;;;;;;;21175748;28;20055;-57
2022/02/03 02:40:00;;;;;;;5.85;3.35;;;;;;;;;;21173645;28;20063;-54
2022/02/03 02:50:11;;;;;;;6.13;3.58;;;;;;;;;;21172219;28;20051;-52
2022/02/03 03:31:40;;;;;;;7.75;3.80;;;;;;;;;;21169347;28;20080;-53
2022/02/03 03:42:03;;;;;;;9.27;4.07;;;;;;;;;;21169475;28;20480;-54
2022/02/03 03:52:27;;;;;;;6.30;3.10;;;;;;;;;;21167120;28;20431;-53
2022/02/03 04:46:16;;;;;;;5.63;3.00;;;;;;;;;;21163523;28;20051;-54
2022/02/03 05:06:58;;;;;;;;;;;;;;;;;;21162897;28;20055;-55
2022/02/03 06:11:53;;;;;;;8.07;3.70;;;;;;;;;;21175541;28;20055;-54
2022/02/03 06:30:18;;;;;;;5.18;3.35;;;;;;;;;;21173416;28;20241;-53
2022/02/03 06:40:20;;;;;;;5.20;3.23;;;;;;;;;;21173622;28;20406;-54
2022/02/03 06:50:35;;;;;;;5.33;3.50;;;;;;;;;;21172340;28;20052;-55
2022/02/03 07:00:44;;;;;;;5.47;3.58;;;;;;;;;;21172079;28;20082;-54
2022/02/03 07:10:47;;;;;;;8.75;3.97;;;;;;;;;;21171374;28;20056;-55
2022/02/03 07:20:50;;;;;;;8.73;4.20;;;;;;;;;;21169868;28;20058;-54
2022/02/03 07:30:52;;;;;;;9.25;4.18;;;;;;;;;;21168771;28;20056;-55
2022/02/03 07:40:54;;;;;;;14.48;4.00;;;;;;;;;;21167424;28;20063;-55
2022/02/03 07:51:16;;;;;;;8.82;4.07;;;;;;;;;;21167232;28;20084;-54
2022/02/03 08:01:38;;;;;;;10.93;4.18;;;;;;;;;;21168016;28;20044;-54
2022/02/03 08:12:06;;;;;;;7.95;4.38;;;;;;;;;;21165741;28;20051;-55
2022/02/03 08:22:34;;;;;;;12.45;5.28;;;;;;;;;;21164739;28;20058;-54
2022/02/03 08:32:59;;;;;;;9.20;5.10;;;;;;;;;;21164517;28;20048;-53
2022/02/03 08:43:15;;;;;;;14.43;10.88;;;;;;;;;;21164261;28;20071;-54
2022/02/03 10:06:55;;;;;;;16.58;6.68;;;;;;;;;;21175665;28;20051;-56
2022/02/03 10:17:06;;;;;;;15.40;7.00;;;;;;;;;;21174992;28;20046;-54
2022/02/03 10:27:37;;;;;;;11.90;7.37;;;;;;;;;;21174332;28;20385;-55
2022/02/03 10:38:05;;;;;;;12.95;6.32;;;;;;;;;;21173245;28;20094;-55
2022/02/03 11:09:06;;;;;;;17.73;7.55;;;;;;;;;;21154960;28;20062;-53
2022/02/03 11:19:13;;;;;;;16.98;8.60;;;;;;;;;;21095619;28;20067;-56
2022/02/03 17:23:47;;;;;;;12.35;5.45;;;;;;;;;;20345106;24;20055;-55
2022/02/03 18:56:25;;;;;;;15.13;6.55;;;;;;;;;;19593587;30;20056;-61
2022/02/03 19:27:23;;;;;;;16.65;10.35;;;;;;;;;;19724047;30;20063;-59
2022/02/03 20:18:29;;;;;;;15.40;9.10;;;;;;;;;;19775159;30;20086;-61
2022/02/03 20:28:31;;;;;;;18.17;9.13;;;;;;;;;;19742995;30;20117;-60
2022/02/03 20:38:33;;;;;;;21.10;8.95;;;;;;;;;;19742845;30;20063;-61
2022/02/03 20:48:45;;;;;;;13.60;8.27;;;;;;;;;;19741451;30;20055;-60
2022/02/03 20:58:48;;;;;;;12.27;6.88;;;;;;;;;;19741430;30;20058;-60
2022/02/03 21:08:51;;;;;;;12.68;7.35;;;;;;;;;;19741227;30;20087;-60
2022/02/03 21:18:52;;;;;;;11.45;6.57;;;;;;;;;;19740875;30;20060;-60
2022/02/03 21:28:55;;;;;;;12.13;6.57;;;;;;;;;;19740773;30;20125;-61
2022/02/03 21:38:56;;;;;;;12.30;6.38;;;;;;;;;;19740270;30;20125;-61
2022/02/03 21:48:59;;;;;;;11.65;6.72;;;;;;;;;;19740024;30;20056;-60
2022/02/03 21:59:06;;;;;;;16.17;8.98;;;;;;;;;;19748387;30;20158;-62
2022/02/03 22:09:08;;;;;;;18.13;8.25;;;;;;;;;;19736864;30;20062;-60
2022/02/03 22:19:10;;;;;;;19.40;9.23;;;;;;;;;;19752243;30;20523;-62
2022/02/03 22:49:33;;;;;;;18.97;9.57;;;;;;;;;;19749950;30;20064;-60
2022/02/03 23:20:12;;;;;;;18.17;11.00;;;;;;;;;;19747596;30;20166;-60
2022/02/03 23:30:17;;;;;;;16.23;9.82;;;;;;;;;;19748171;30;20479;-60
2022/02/03 23:40:26;;;;;;;11.80;8.43;;;;;;;;;;19746487;30;20052;-61
